Time;durP1;ratioP1;P1;durP2;ratioP2;P2;SDS_P1;SDS_P2;PMS_P1;PMS_P2;Temp;Humidity;BMP_temperature;BMP_pressure;BME280_temperature;BME280_humidity;BME280_pressure;Samples;Min_cycle;Max_cycle;Signal;HPM_P1;HPM_P2
2022/03/17 00:00:37;;;;;;;12.13;7.80;;;21.00;67.30;;;;;;7902729;28;20207;-51
2022/03/17 00:04:22;;;;;;;9.52;7.88;;;20.90;67.20;;;;;;7902680;28;20212;-50
2022/03/17 00:08:08;;;;;;;10.18;8.20;;;20.90;67.20;;;;;;7902743;28;20684;-49
2022/03/17 00:11:54;;;;;;;10.88;8.32;;;20.90;67.20;;;;;;7902274;28;20204;-51
2022/03/17 00:15:40;;;;;;;10.13;7.68;;;20.90;67.20;;;;;;7902489;28;20208;-50
2022/03/17 00:19:26;;;;;;;10.75;8.45;;;20.90;67.20;;;;;;7902133;28;20169;-51
2022/03/17 00:23:12;;;;;;;11.52;7.80;;;20.80;67.10;;;;;;7902337;28;20250;-49
2022/03/17 00:26:57;;;;;;;11.02;7.93;;;20.80;67.10;;;;;;7902216;28;20179;-49
2022/03/17 00:30:43;;;;;;;10.68;8.40;;;20.70;67.00;;;;;;7902026;28;20249;-48
2022/03/17 00:34:28;;;;;;;10.07;7.68;;;20.80;67.10;;;;;;7901736;28;20221;-47
2022/03/17 00:38:16;;;;;;;12.23;8.15;;;20.80;67.00;;;;;;7901930;28;20172;-48
2022/03/17 00:42:02;;;;;;;10.35;7.82;;;20.70;67.00;;;;;;7901459;28;20197;-50
2022/03/17 00:45:47;;;;;;;8.63;7.35;;;20.70;67.00;;;;;;7901805;28;20212;-48
2022/03/17 00:49:33;;;;;;;11.63;8.15;;;20.70;66.90;;;;;;7901461;28;20691;-48
2022/03/17 00:53:18;;;;;;;9.10;7.15;;;20.70;67.00;;;;;;7901315;28;20201;-48
2022/03/17 00:57:04;;;;;;;9.95;8.13;;;20.60;66.80;;;;;;7901175;28;20179;-51
2022/03/17 01:00:49;;;;;;;9.30;7.90;;;20.60;66.80;;;;;;7900906;28;20610;-48
2022/03/17 01:04:35;;;;;;;9.93;8.00;;;20.60;66.80;;;;;;7901014;28;20189;-48
2022/03/17 01:08:21;;;;;;;9.13;7.63;;;20.60;66.80;;;;;;7901350;28;20187;-47
2022/03/17 01:12:07;;;;;;;10.52;8.07;;;20.60;66.80;;;;;;7900810;28;20678;-52
2022/03/17 01:15:52;;;;;;;10.40;7.90;;;20.50;66.80;;;;;;7901048;28;20208;-53
2022/03/17 01:19:37;;;;;;;9.30;8.00;;;20.50;66.80;;;;;;7900961;28;20184;-48
2022/03/17 01:23:23;;;;;;;11.60;7.85;;;20.50;66.80;;;;;;7900808;28;20196;-48
2022/03/17 01:27:09;;;;;;;9.57;7.60;;;20.50;66.80;;;;;;7903837;28;20219;-50
2022/03/17 01:30:54;;;;;;;9.90;7.97;;;20.50;66.70;;;;;;7900322;28;20543;-48
2022/03/17 01:34:40;;;;;;;9.18;7.38;;;20.50;66.80;;;;;;7900386;28;20216;-48
2022/03/17 01:38:25;;;;;;;10.10;8.38;;;20.50;66.70;;;;;;7900481;28;20196;-47
2022/03/17 01:42:11;;;;;;;8.88;7.75;;;20.50;66.70;;;;;;7900175;28;20192;-48
2022/03/17 01:45:56;;;;;;;9.27;7.57;;;20.40;66.70;;;;;;7900661;28;20168;-48
2022/03/17 01:49:42;;;;;;;10.27;7.90;;;20.40;66.60;;;;;;7899895;28;20262;-53
2022/03/17 01:53:27;;;;;;;8.98;7.78;;;20.40;66.70;;;;;;7900075;28;20682;-49
2022/03/17 01:57:13;;;;;;;9.57;8.27;;;20.40;66.60;;;;;;7900176;28;20219;-50
2022/03/17 02:00:59;;;;;;;8.73;7.13;;;20.40;66.60;;;;;;7899222;28;20851;-51
2022/03/17 02:04:47;;;;;;;10.07;7.97;;;20.40;66.60;;;;;;7900013;28;20196;-49
2022/03/17 02:08:32;;;;;;;8.27;6.90;;;20.30;66.50;;;;;;7899935;28;20589;-48
2022/03/17 02:16:22;;;;;;;10.30;7.75;;;20.30;66.50;;;;;;7906027;28;20207;-51
2022/03/17 02:20:12;;;;;;;8.63;7.50;;;20.30;66.40;;;;;;7905746;28;20698;-51
2022/03/17 02:28:06;;;;;;;9.77;8.13;;;20.30;66.40;;;;;;7909442;28;20185;-47
2022/03/17 02:31:52;;;;;;;9.00;7.90;;;20.30;66.40;;;;;;7905449;28;20241;-52
2022/03/17 02:35:39;;;;;;;10.43;8.30;;;20.20;66.50;;;;;;7905542;28;20292;-48
2022/03/17 02:39:24;;;;;;;10.25;7.88;;;20.20;66.50;;;;;;7905204;28;20579;-51
2022/03/17 02:43:11;;;;;;;10.95;8.25;;;20.20;66.50;;;;;;7905348;28;20374;-48
2022/03/17 02:46:56;;;;;;;9.43;8.43;;;20.20;66.50;;;;;;7905273;28;20787;-48
2022/03/17 02:50:42;;;;;;;10.20;8.00;;;20.20;66.40;;;;;;7905002;28;20741;-47
2022/03/17 02:54:27;;;;;;;10.93;8.35;;;20.20;66.50;;;;;;7904928;28;20237;-48
2022/03/17 02:58:13;;;;;;;10.10;7.88;;;20.20;66.40;;;;;;7905645;28;20179;-52
2022/03/17 03:02:01;;;;;;;11.27;8.48;;;20.10;66.30;;;;;;7904742;28;20245;-48
2022/03/17 03:05:46;;;;;;;12.23;8.52;;;20.10;66.20;;;;;;7905118;28;20165;-48
2022/03/17 03:09:32;;;;;;;12.15;8.70;;;20.10;66.30;;;;;;7904751;28;20176;-49
2022/03/17 03:13:18;;;;;;;10.50;8.43;;;20.10;66.20;;;;;;7904571;28;20253;-48
2022/03/17 03:17:04;;;;;;;9.63;8.13;;;20.00;66.20;;;;;;7904720;28;20214;-48
2022/03/17 03:20:50;;;;;;;10.75;8.38;;;20.10;66.20;;;;;;7904058;28;20658;-52
2022/03/17 03:24:38;;;;;;;11.07;8.48;;;20.00;66.20;;;;;;7904154;28;20188;-51
2022/03/17 03:28:24;;;;;;;11.52;8.82;;;20.00;66.10;;;;;;7904041;28;20241;-53
2022/03/17 03:32:09;;;;;;;10.40;8.85;;;20.00;66.10;;;;;;7903550;28;20228;-48
2022/03/17 03:40:00;;;;;;;11.80;8.85;;;20.00;66.10;;;;;;7903521;28;20638;-48
2022/03/17 03:43:45;;;;;;;9.45;7.85;;;20.00;66.10;;;;;;7903443;28;20569;-48
2022/03/17 03:47:30;;;;;;;10.50;8.52;;;19.90;66.10;;;;;;7903386;28;20259;-48
2022/03/17 03:51:16;;;;;;;11.23;9.15;;;19.90;66.00;;;;;;7903076;28;20315;-48
2022/03/17 03:55:02;;;;;;;12.57;9.82;;;19.90;66.10;;;;;;7902940;28;20220;-51
2022/03/17 03:58:47;;;;;;;14.05;10.50;;;19.90;65.90;;;;;;7902976;28;20715;-51
2022/03/17 04:02:32;;;;;;;11.63;9.40;;;19.90;65.80;;;;;;7902644;28;20192;-51
2022/03/17 04:06:18;;;;;;;10.18;8.48;;;19.90;66.00;;;;;;7902788;28;20168;-51
2022/03/17 04:10:05;;;;;;;12.10;9.85;;;19.90;66.10;;;;;;7902457;28;20536;-52
2022/03/17 04:13:51;;;;;;;12.38;10.18;;;19.90;66.00;;;;;;7902402;28;20200;-48
2022/03/17 04:17:36;;;;;;;10.93;9.23;;;19.80;65.80;;;;;;7916185;28;20176;-48
2022/03/17 04:21:22;;;;;;;13.23;10.85;;;19.80;65.50;;;;;;7933682;28;20179;-47
2022/03/17 04:25:08;;;;;;;14.25;11.02;;;19.80;65.50;;;;;;7933415;28;20211;-51
2022/03/17 04:28:54;;;;;;;13.07;11.63;;;19.80;65.50;;;;;;7907968;28;20192;-51
2022/03/17 04:32:40;;;;;;;20.60;10.93;;;19.80;65.50;;;;;;7901451;28;20666;-51
2022/03/17 04:36:26;;;;;;;13.38;11.00;;;19.80;65.50;;;;;;7902173;28;20208;-49
2022/03/17 04:40:13;;;;;;;18.65;13.85;;;19.80;65.50;;;;;;7901751;28;20209;-48
2022/03/17 04:43:58;;;;;;;17.52;12.82;;;19.80;65.20;;;;;;7901582;28;20196;-48
2022/03/17 04:47:44;;;;;;;19.77;11.95;;;19.80;65.30;;;;;;7901488;28;20192;-50
2022/03/17 04:51:29;;;;;;;17.77;11.82;;;19.80;65.20;;;;;;7901230;28;20197;-51
2022/03/17 04:55:15;;;;;;;20.70;12.82;;;19.80;64.90;;;;;;7901441;28;20204;-48
2022/03/17 04:59:00;;;;;;;18.58;13.18;;;19.90;65.00;;;;;;7922822;28;20187;-48
2022/03/17 05:02:46;;;;;;;24.70;14.70;;;19.90;65.00;;;;;;7931234;28;20188;-49
2022/03/17 05:06:31;;;;;;;24.35;14.68;;;19.90;64.90;;;;;;7932796;28;20182;-48
2022/03/17 05:10:16;;;;;;;25.13;13.93;;;19.90;64.80;;;;;;7932524;28;20187;-49
2022/03/17 05:14:03;;;;;;;19.88;13.90;;;19.90;64.70;;;;;;7932559;28;20588;-51
2022/03/17 05:17:49;;;;;;;19.52;14.77;;;19.90;64.70;;;;;;7932938;28;20175;-49
2022/03/17 05:21:34;;;;;;;23.75;15.45;;;19.90;64.70;;;;;;7932631;28;20183;-48
2022/03/17 05:25:20;;;;;;;22.85;14.95;;;19.90;64.50;;;;;;7932783;28;20176;-48
2022/03/17 05:29:06;;;;;;;23.10;15.20;;;19.90;64.40;;;;;;7932308;28;20207;-51
2022/03/17 05:32:52;;;;;;;26.17;12.93;;;19.90;64.40;;;;;;7928127;28;20580;-50
2022/03/17 05:36:37;;;;;;;22.77;14.32;;;20.00;64.80;;;;;;7929234;28;20187;-51
2022/03/17 05:40:23;;;;;;;28.23;14.18;;;20.00;64.50;;;;;;7931680;28;20263;-48
2022/03/17 05:44:09;;;;;;;30.90;14.80;;;20.00;64.50;;;;;;7931963;28;20196;-48
2022/03/17 05:47:57;;;;;;;26.23;15.10;;;20.10;64.70;;;;;;7938434;28;20194;-50
2022/03/17 05:51:42;;;;;;;23.73;15.77;;;20.10;64.40;;;;;;7938021;28;20207;-47
2022/03/17 05:55:28;;;;;;;24.98;15.15;;;20.10;64.30;;;;;;7938428;27;20680;-48
2022/03/17 05:59:13;;;;;;;22.98;15.90;;;20.10;64.30;;;;;;7937743;28;20183;-48
2022/03/17 06:02:59;;;;;;;24.52;16.02;;;20.10;64.20;;;;;;7938106;28;20195;-50
2022/03/17 06:06:45;;;;;;;22.38;15.95;;;20.20;64.20;;;;;;7938127;27;20176;-49
2022/03/17 06:10:32;;;;;;;23.67;16.10;;;20.20;64.20;;;;;;7937541;28;20251;-49
2022/03/17 06:14:18;;;;;;;21.90;15.68;;;20.20;64.10;;;;;;7937915;28;20207;-51
2022/03/17 06:18:05;;;;;;;24.55;15.68;;;20.20;64.20;;;;;;7937762;28;20168;-47
2022/03/17 06:21:51;;;;;;;21.30;15.88;;;20.20;64.00;;;;;;7937280;28;20626;-48
2022/03/17 06:25:37;;;;;;;19.88;15.57;;;20.20;64.00;;;;;;7937179;28;20535;-48
2022/03/17 06:29:22;;;;;;;24.73;16.33;;;20.20;63.90;;;;;;7937258;28;20677;-51
2022/03/17 06:33:08;;;;;;;21.98;16.13;;;20.20;63.90;;;;;;7937312;28;20206;-50
2022/03/17 06:36:53;;;;;;;22.88;15.38;;;20.30;63.80;;;;;;7936497;28;20176;-50
2022/03/17 06:40:39;;;;;;;22.20;16.35;;;20.30;63.80;;;;;;7935039;28;20541;-51
2022/03/17 06:44:24;;;;;;;20.50;16.05;;;20.30;63.80;;;;;;7937423;28;20196;-49
2022/03/17 06:48:10;;;;;;;19.38;15.05;;;20.30;63.80;;;;;;7936707;28;20540;-48
2022/03/17 06:51:56;;;;;;;21.75;15.48;;;20.30;63.80;;;;;;7936305;28;20219;-49
2022/03/17 06:55:42;;;;;;;21.52;13.68;;;20.30;63.80;;;;;;7936325;28;20204;-48
2022/03/17 06:59:27;;;;;;;18.88;13.40;;;20.30;64.10;;;;;;7936297;28;20706;-50
2022/03/17 07:03:13;;;;;;;26.42;13.73;;;20.30;64.20;;;;;;7936269;28;20203;-51
2022/03/17 07:06:59;;;;;;;26.02;15.77;;;20.30;64.40;;;;;;7936361;28;20175;-48
2022/03/17 07:10:44;;;;;;;23.50;15.80;;;20.30;64.10;;;;;;7936120;28;20171;-48
2022/03/17 07:14:31;;;;;;;24.90;15.70;;;20.30;64.10;;;;;;7936035;28;20200;-48
2022/03/17 07:18:16;;;;;;;20.95;16.17;;;20.40;64.10;;;;;;7936227;28;20538;-48
2022/03/17 07:22:03;;;;;;;20.48;15.20;;;20.30;64.00;;;;;;7935668;28;20195;-50
2022/03/17 07:25:49;;;;;;;22.75;15.80;;;20.30;64.10;;;;;;7935674;28;20176;-47
2022/03/17 07:29:34;;;;;;;20.92;16.13;;;20.30;64.10;;;;;;7935417;28;20172;-51
2022/03/17 07:33:19;;;;;;;23.17;16.33;;;20.30;64.10;;;;;;7935658;28;20238;-48
2022/03/17 07:37:05;;;;;;;24.65;17.17;;;20.30;64.10;;;;;;7933123;28;20196;-47
2022/03/17 07:40:51;;;;;;;20.50;15.85;;;20.30;64.00;;;;;;7934796;28;20685;-47
2022/03/17 07:44:37;;;;;;;21.35;16.38;;;20.30;64.00;;;;;;7935145;28;20195;-48
2022/03/17 07:48:22;;;;;;;21.35;16.30;;;20.30;64.00;;;;;;7935187;28;20191;-49
2022/03/17 07:52:08;;;;;;;19.67;14.90;;;20.30;64.00;;;;;;7934477;28;20195;-47
2022/03/17 07:55:55;;;;;;;23.73;16.50;;;20.30;64.00;;;;;;7934774;28;20250;-47
2022/03/17 07:59:41;;;;;;;24.00;15.65;;;20.30;64.00;;;;;;7934499;28;20172;-52
2022/03/17 08:03:27;;;;;;;21.25;15.50;;;20.30;64.10;;;;;;7934362;28;20210;-50
2022/03/17 08:07:12;;;;;;;20.98;14.95;;;20.30;64.10;;;;;;7933720;28;20180;-47
2022/03/17 08:10:58;;;;;;;19.70;15.43;;;20.30;64.10;;;;;;7934089;28;20294;-49
2022/03/17 08:14:43;;;;;;;19.45;14.63;;;20.30;64.10;;;;;;7934036;27;20652;-48
2022/03/17 08:18:30;;;;;;;20.23;13.95;;;20.30;64.10;;;;;;7934023;28;20186;-48
2022/03/17 08:22:16;;;;;;;21.88;15.00;;;20.30;64.40;;;;;;7933745;28;20198;-49
2022/03/17 08:26:02;;;;;;;18.45;14.68;;;20.30;64.40;;;;;;7933957;28;20192;-48
2022/03/17 08:29:48;;;;;;;23.88;16.52;;;20.30;64.30;;;;;;7933555;28;20271;-50
2022/03/17 08:33:34;;;;;;;21.50;15.90;;;20.40;64.40;;;;;;7933533;28;20210;-52
2022/03/17 08:37:19;;;;;;;19.13;14.45;;;20.30;64.20;;;;;;7933376;28;20259;-51
2022/03/17 08:41:05;;;;;;;19.02;15.18;;;20.30;64.20;;;;;;7933132;28;20168;-50
2022/03/17 08:44:50;;;;;;;21.27;16.23;;;20.30;64.20;;;;;;7933305;28;20236;-48
2022/03/17 08:52:44;;;;;;;23.05;15.48;;;20.30;64.20;;;;;;7933342;28;20208;-49
2022/03/17 08:56:32;;;;;;;16.15;14.00;;;20.40;64.30;;;;;;7932853;28;20292;-51
2022/03/17 09:00:18;;;;;;;23.10;14.68;;;20.40;64.20;;;;;;7932627;27;20188;-48
2022/03/17 09:04:05;;;;;;;22.75;14.95;;;20.40;65.10;;;;;;7932789;28;20280;-49
2022/03/17 09:07:50;;;;;;;24.45;15.50;;;20.30;64.20;;;;;;7932663;28;20184;-48
2022/03/17 09:11:36;;;;;;;22.10;15.85;;;20.30;64.20;;;;;;7932447;28;20217;-47
2022/03/17 09:15:22;;;;;;;22.40;14.63;;;20.30;64.30;;;;;;7932754;28;20334;-47
2022/03/17 09:19:07;;;;;;;19.77;15.15;;;20.30;64.30;;;;;;7932193;28;20183;-47
2022/03/17 09:22:53;;;;;;;22.02;15.27;;;20.30;64.40;;;;;;7932366;28;20213;-49
2022/03/17 09:26:38;;;;;;;24.27;15.52;;;20.30;64.30;;;;;;7932488;28;20179;-47
2022/03/17 09:30:24;;;;;;;20.08;14.48;;;20.30;64.40;;;;;;7931956;28;20175;-48
2022/03/17 09:34:10;;;;;;;19.10;13.20;;;20.30;64.40;;;;;;7932214;28;20203;-49
2022/03/17 09:37:56;;;;;;;19.77;12.43;;;20.30;64.60;;;;;;7929254;28;20250;-48
2022/03/17 09:41:42;;;;;;;23.35;14.13;;;20.30;64.70;;;;;;7931724;28;20183;-51
2022/03/17 09:45:27;;;;;;;18.98;13.95;;;20.30;64.80;;;;;;7931902;28;20633;-49
2022/03/17 09:49:14;;;;;;;19.73;14.18;;;20.30;64.70;;;;;;7931616;28;20223;-48
2022/03/17 09:52:59;;;;;;;25.92;14.57;;;20.30;64.80;;;;;;7931924;28;20223;-49
2022/03/17 09:56:45;;;;;;;20.20;13.80;;;20.30;64.70;;;;;;7931666;28;20179;-48
2022/03/17 10:00:49;;;;;;;21.17;14.18;;;20.30;64.60;;;;;;7931510;28;20533;-48
2022/03/17 10:04:35;;;;;;;22.48;14.65;;;20.30;64.60;;;;;;7931651;28;20880;-47
2022/03/17 10:08:23;;;;;;;20.52;14.98;;;20.30;64.60;;;;;;7931445;28;20541;-47
2022/03/17 10:12:10;;;;;;;21.95;14.43;;;20.30;64.60;;;;;;7931355;28;20196;-48
2022/03/17 10:16:05;;;;;;;18.83;13.55;;;20.20;64.60;;;;;;7931598;28;20222;-51
2022/03/17 10:19:51;;;;;;;16.02;13.48;;;20.30;64.70;;;;;;7931180;28;20172;-50
2022/03/17 10:23:59;;;;;;;21.70;13.45;;;20.30;64.60;;;;;;7931198;28;20199;-51
2022/03/17 10:27:46;;;;;;;17.40;12.30;;;20.30;64.70;;;;;;7931480;28;20183;-50
2022/03/17 10:31:32;;;;;;;21.17;13.82;;;20.30;64.90;;;;;;7933335;28;20176;-49
2022/03/17 10:35:26;;;;;;;20.45;14.43;;;20.30;64.80;;;;;;7937102;28;20226;-51
2022/03/17 10:39:12;;;;;;;20.55;14.20;;;20.30;64.70;;;;;;7934236;28;20810;-47
2022/03/17 10:43:17;;;;;;;19.85;14.48;;;20.30;64.70;;;;;;7937099;28;20195;-47
2022/03/17 10:47:02;;;;;;;22.08;13.23;;;20.30;64.80;;;;;;7937120;27;20240;-51
2022/03/17 10:50:48;;;;;;;21.42;14.13;;;20.30;64.70;;;;;;7936763;28;20192;-50
2022/03/17 10:54:33;;;;;;;19.50;13.23;;;20.20;64.80;;;;;;7937187;28;20215;-47
2022/03/17 10:58:20;;;;;;;16.58;13.40;;;20.30;64.70;;;;;;7937012;28;20665;-53
2022/03/17 11:02:09;;;;;;;16.00;12.98;;;20.30;64.70;;;;;;7936666;28;20340;-48
2022/03/17 11:05:55;;;;;;;15.40;12.57;;;20.30;64.80;;;;;;7936700;28;20229;-47
2022/03/17 11:09:42;;;;;;;16.10;13.40;;;20.20;64.80;;;;;;7936262;28;20180;-48
2022/03/17 11:13:29;;;;;;;16.77;12.90;;;20.30;64.70;;;;;;7935996;28;20204;-51
2022/03/17 11:17:20;;;;;;;17.92;11.82;;;20.30;64.80;;;;;;7936162;28;20188;-48
2022/03/17 11:21:20;;;;;;;14.27;11.20;;;20.30;65.00;;;;;;7935781;28;20229;-48
2022/03/17 11:25:25;;;;;;;13.68;11.18;;;20.30;65.30;;;;;;7935777;28;20200;-50
2022/03/17 11:29:13;;;;;;;14.57;11.02;;;20.30;65.50;;;;;;7935550;28;20247;-48
2022/03/17 11:32:58;;;;;;;16.38;10.88;;;20.30;65.50;;;;;;7935759;28;20204;-51
2022/03/17 11:37:18;;;;;;;15.18;10.57;;;20.30;65.50;;;;;;7935211;27;20215;-50
2022/03/17 11:41:15;;;;;;;19.92;10.68;;;20.30;65.60;;;;;;7935347;28;20665;-48
2022/03/17 11:45:34;;;;;;;14.13;10.50;;;20.30;65.60;;;;;;7933970;28;20198;-48
2022/03/17 11:49:27;;;;;;;15.10;10.38;;;20.30;65.60;;;;;;7934430;28;20200;-49
2022/03/17 11:53:21;;;;;;;14.98;9.38;;;20.30;65.70;;;;;;7934631;28;20204;-48
2022/03/17 11:57:07;;;;;;;16.27;9.93;;;20.30;65.80;;;;;;7935039;28;20542;-48
2022/03/17 12:01:03;;;;;;;22.60;10.07;;;20.30;65.70;;;;;;7934426;28;20172;-48
2022/03/17 12:04:51;;;;;;;18.60;10.45;;;20.20;65.70;;;;;;7935327;27;20207;-50
2022/03/17 12:09:01;;;;;;;17.10;10.30;;;20.30;65.90;;;;;;7934496;28;20737;-47
2022/03/17 12:12:48;;;;;;;18.50;11.35;;;20.20;65.70;;;;;;7934110;28;20223;-48
2022/03/17 12:16:40;;;;;;;17.13;10.60;;;20.30;65.70;;;;;;7934011;28;20303;-48
2022/03/17 12:20:25;;;;;;;15.48;10.30;;;20.20;65.50;;;;;;7933792;28;20193;-49
2022/03/17 12:24:11;;;;;;;15.38;11.02;;;20.20;65.60;;;;;;7933997;27;20286;-49
2022/03/17 12:28:01;;;;;;;17.45;11.57;;;20.20;65.70;;;;;;7933731;28;20207;-48
2022/03/17 12:31:47;;;;;;;14.10;10.25;;;20.30;65.50;;;;;;7933523;28;20172;-47
2022/03/17 12:35:37;;;;;;;13.75;11.13;;;20.30;65.70;;;;;;7933864;28;20219;-48
2022/03/17 12:39:31;;;;;;;19.05;10.65;;;20.30;65.60;;;;;;7930624;28;20183;-48
2022/03/17 12:43:18;;;;;;;20.45;10.55;;;20.30;66.10;;;;;;7933583;27;20206;-48
2022/03/17 12:47:04;;;;;;;13.80;10.43;;;20.20;66.00;;;;;;7933314;28;20167;-51
2022/03/17 12:50:49;;;;;;;16.52;10.48;;;20.30;65.80;;;;;;7933154;28;20741;-50
2022/03/17 12:54:35;;;;;;;14.27;10.90;;;20.30;65.70;;;;;;7932449;28;20212;-47
2022/03/17 12:58:20;;;;;;;17.20;10.60;;;20.30;65.80;;;;;;7933246;28;20301;-48
2022/03/17 13:02:07;;;;;;;14.10;10.82;;;20.30;65.70;;;;;;7932761;27;20203;-50
2022/03/17 13:09:57;;;;;;;17.00;10.35;;;20.30;65.70;;;;;;7932975;28;20579;-48
2022/03/17 13:17:50;;;;;;;14.55;10.27;;;20.30;65.50;;;;;;7932320;28;20670;-50
2022/03/17 13:21:37;;;;;;;13.15;9.88;;;20.30;65.70;;;;;;7932120;28;20708;-47
2022/03/17 13:25:23;;;;;;;13.90;10.27;;;20.20;66.50;;;;;;7932431;28;20175;-48
2022/03/17 13:29:13;;;;;;;12.50;10.18;;;20.20;65.80;;;;;;7931985;28;20273;-47
2022/03/17 13:33:12;;;;;;;16.92;9.80;;;20.30;66.30;;;;;;7932138;28;20200;-49
2022/03/17 13:36:59;;;;;;;13.60;9.75;;;20.30;65.80;;;;;;7932138;28;20187;-48
2022/03/17 13:40:49;;;;;;;11.70;9.20;;;20.30;66.30;;;;;;7928921;28;20225;-47
2022/03/17 13:44:55;;;;;;;12.18;9.70;;;20.30;66.20;;;;;;7932030;28;20204;-51
2022/03/17 13:48:41;;;;;;;15.43;9.88;;;20.30;65.80;;;;;;7932035;28;20240;-47
2022/03/17 13:52:26;;;;;;;10.93;9.30;;;20.30;66.00;;;;;;7931641;28;20252;-50
2022/03/17 13:56:12;;;;;;;11.20;9.15;;;20.30;65.80;;;;;;7931658;28;20210;-48
2022/03/17 13:59:58;;;;;;;12.27;9.20;;;20.30;65.80;;;;;;7931474;28;20176;-49
2022/03/17 14:03:52;;;;;;;11.63;9.43;;;20.30;65.80;;;;;;7931673;28;20243;-48
2022/03/17 14:07:37;;;;;;;14.05;8.98;;;20.30;65.80;;;;;;7935718;28;20168;-48
2022/03/17 14:11:25;;;;;;;11.07;9.23;;;20.30;66.10;;;;;;7937841;28;20194;-48
2022/03/17 14:15:11;;;;;;;12.95;8.90;;;20.20;66.00;;;;;;7937971;28;20203;-50
2022/03/17 14:19:00;;;;;;;14.50;9.30;;;20.20;66.00;;;;;;7937425;27;20665;-50
2022/03/17 14:26:50;;;;;;;13.25;9.02;;;20.20;66.20;;;;;;7937611;28;20172;-51
2022/03/17 14:30:35;;;;;;;13.02;9.40;;;20.20;66.50;;;;;;7937122;28;20178;-48
2022/03/17 14:34:23;;;;;;;14.43;8.57;;;20.20;66.20;;;;;;7937690;28;20215;-48
2022/03/17 14:38:09;;;;;;;16.65;9.32;;;20.20;66.60;;;;;;7937033;28;20211;-53
2022/03/17 14:41:55;;;;;;;34.58;9.30;;;20.20;66.20;;;;;;7936812;27;20191;-47
2022/03/17 14:45:40;;;;;;;12.07;9.13;;;20.20;66.00;;;;;;7937046;28;20195;-47
2022/03/17 14:49:26;;;;;;;14.63;9.48;;;20.20;66.00;;;;;;7936801;28;20197;-50
2022/03/17 14:53:11;;;;;;;12.98;8.70;;;20.20;65.90;;;;;;7937063;28;20219;-51
2022/03/17 14:56:57;;;;;;;12.73;9.32;;;20.20;66.00;;;;;;7932908;28;20206;-49
2022/03/17 15:00:42;;;;;;;12.38;9.38;;;20.20;66.00;;;;;;7917940;28;20268;-50
2022/03/17 15:04:28;;;;;;;14.18;9.27;;;20.10;65.90;;;;;;7921384;28;20188;-50
2022/03/17 15:08:14;;;;;;;11.55;8.85;;;20.20;65.90;;;;;;7920094;28;20658;-48
2022/03/17 15:11:59;;;;;;;14.02;9.10;;;20.10;65.70;;;;;;7917223;28;20533;-48
2022/03/17 15:15:45;;;;;;;11.07;8.40;;;20.10;65.80;;;;;;7918469;28;20207;-48
2022/03/17 15:19:30;;;;;;;11.77;9.52;;;20.10;65.70;;;;;;7918043;28;20176;-50
2022/03/17 15:23:16;;;;;;;14.65;9.48;;;20.10;65.70;;;;;;7917129;28;20249;-48
2022/03/17 15:31:06;;;;;;;13.98;9.43;;;20.10;65.90;;;;;;7911317;28;20267;-48
2022/03/17 15:34:52;;;;;;;11.60;9.52;;;20.10;65.90;;;;;;7903669;28;20258;-49
2022/03/17 15:38:40;;;;;;;12.43;8.93;;;20.10;65.80;;;;;;7905216;28;20642;-47
2022/03/17 15:42:28;;;;;;;19.27;8.70;;;20.10;65.70;;;;;;7903059;28;20199;-47
2022/03/17 15:46:14;;;;;;;20.17;10.18;;;20.10;65.90;;;;;;7903325;28;20176;-48
2022/03/17 15:49:59;;;;;;;18.40;10.20;;;20.10;65.10;;;;;;7903189;28;20227;-48
2022/03/17 15:53:45;;;;;;;18.15;9.40;;;20.10;65.20;;;;;;7903283;28;20208;-50
2022/03/17 15:57:31;;;;;;;54.05;24.77;;;20.10;65.20;;;;;;7903249;28;20202;-47
2022/03/17 16:01:20;;;;;;;85.00;37.03;;;20.10;65.60;;;;;;7902946;28;20177;-48
2022/03/17 16:05:08;;;;;;;78.72;34.42;;;20.10;64.50;;;;;;7907149;28;20199;-50
2022/03/17 16:08:53;;;;;;;80.55;33.90;;;20.10;64.50;;;;;;7934626;28;20657;-47
2022/03/17 16:16:43;;;;;;;64.32;29.05;;;20.10;64.80;;;;;;7902759;28;20199;-50
2022/03/17 16:20:29;;;;;;;56.05;24.50;;;20.10;64.80;;;;;;7902593;28;20203;-50
2022/03/17 16:24:15;;;;;;;51.92;23.95;;;20.10;64.80;;;;;;7902424;28;20855;-50
2022/03/17 16:28:00;;;;;;;47.08;26.88;;;20.10;65.10;;;;;;7901990;28;20526;-50
2022/03/17 16:31:46;;;;;;;60.60;26.70;;;20.10;63.10;;;;;;7901771;28;20176;-49
2022/03/17 16:35:33;;;;;;;67.90;28.48;;;20.10;64.50;;;;;;7902094;28;20196;-47
2022/03/17 16:39:19;;;;;;;65.05;29.98;;;20.10;64.60;;;;;;7902053;28;20245;-49
2022/03/17 16:43:05;;;;;;;55.90;28.63;;;20.10;64.20;;;;;;7901748;28;20192;-48
2022/03/17 16:46:52;;;;;;;48.03;25.90;;;20.10;63.90;;;;;;7901737;28;20195;-48
2022/03/17 16:50:37;;;;;;;46.95;25.88;;;20.10;63.60;;;;;;7901148;28;20200;-50
2022/03/17 16:54:23;;;;;;;47.03;24.88;;;20.10;63.70;;;;;;7901400;28;20682;-50
2022/03/17 16:58:08;;;;;;;41.78;22.48;;;20.20;63.80;;;;;;7901357;28;20176;-50
2022/03/17 17:01:54;;;;;;;39.25;21.38;;;20.20;65.00;;;;;;7901264;28;20180;-50
2022/03/17 17:05:39;;;;;;;38.75;20.38;;;20.30;63.80;;;;;;7901230;28;20211;-50
2022/03/17 17:09:25;;;;;;;46.33;20.33;;;20.50;63.90;;;;;;7903153;28;20848;-49
2022/03/17 17:13:10;;;;;;;34.72;18.67;;;20.70;64.00;;;;;;7902064;28;20204;-49
2022/03/17 17:16:58;;;;;;;40.08;19.33;;;20.90;64.10;;;;;;7900741;28;20277;-47
2022/03/17 17:20:44;;;;;;;40.40;18.52;;;21.00;64.30;;;;;;7900706;28;20545;-47
2022/03/17 17:32:38;;;;;;;37.42;17.35;;;21.40;64.50;;;;;;7900349;28;20192;-49
2022/03/17 17:36:23;;;;;;;33.55;17.88;;;21.60;64.60;;;;;;7900912;28;20279;-50
2022/03/17 17:40:09;;;;;;;33.70;18.10;;;21.70;64.50;;;;;;7913710;28;20187;-48
2022/03/17 17:43:55;;;;;;;36.70;17.00;;;21.80;64.60;;;;;;7900509;28;20674;-48
2022/03/17 17:47:46;;;;;;;40.88;16.35;;;21.90;64.70;;;;;;7900413;28;20579;-51
2022/03/17 17:51:32;;;;;;;33.67;16.73;;;21.90;64.60;;;;;;7899946;28;20190;-48
2022/03/17 17:55:17;;;;;;;32.13;15.88;;;22.00;64.50;;;;;;7900098;28;20212;-48
2022/03/17 17:59:03;;;;;;;35.47;15.73;;;22.10;64.60;;;;;;7900172;28;20194;-47
2022/03/17 18:02:48;;;;;;;31.23;16.42;;;22.10;64.60;;;;;;7900090;28;20192;-49
2022/03/17 18:06:34;;;;;;;29.33;15.63;;;22.10;65.40;;;;;;7900252;28;20234;-50
2022/03/17 18:10:21;;;;;;;27.38;14.63;;;22.20;64.40;;;;;;7899905;28;20184;-50
2022/03/17 18:14:08;;;;;;;33.70;15.27;;;22.20;64.30;;;;;;7900077;28;20212;-48
2022/03/17 18:17:57;;;;;;;34.65;15.77;;;22.20;64.10;;;;;;7899703;28;20200;-50
2022/03/17 18:21:42;;;;;;;29.30;14.90;;;22.20;64.30;;;;;;7899776;28;20181;-49
2022/03/17 18:25:28;;;;;;;36.15;15.07;;;22.20;64.50;;;;;;7919306;28;20184;-50
2022/03/17 18:29:14;;;;;;;34.45;14.95;;;22.30;64.40;;;;;;7927852;28;20208;-50
2022/03/17 18:33:01;;;;;;;29.33;14.95;;;22.30;64.50;;;;;;7931448;28;20204;-50
2022/03/17 18:36:46;;;;;;;29.27;14.90;;;22.30;64.20;;;;;;7931362;28;20230;-49
2022/03/17 18:40:32;;;;;;;30.88;14.55;;;22.30;64.30;;;;;;7931028;28;20681;-50
2022/03/17 18:44:18;;;;;;;34.38;14.52;;;22.30;64.30;;;;;;7931792;28;20195;-49
2022/03/17 18:48:04;;;;;;;30.85;13.90;;;22.20;64.30;;;;;;7931157;28;20209;-50
2022/03/17 18:51:50;;;;;;;27.35;13.05;;;22.20;64.20;;;;;;7931612;28;20197;-51
2022/03/17 18:55:36;;;;;;;31.05;14.20;;;22.20;64.10;;;;;;7936684;28;20207;-52
2022/03/17 18:59:21;;;;;;;31.42;13.98;;;22.20;64.00;;;;;;7918606;28;20662;-49
2022/03/17 19:03:07;;;;;;;26.92;13.52;;;22.20;64.10;;;;;;7922706;28;20222;-51
2022/03/17 19:06:54;;;;;;;35.28;13.25;;;22.20;64.00;;;;;;7936585;28;20176;-53
2022/03/17 19:10:43;;;;;;;27.95;13.07;;;22.20;65.10;;;;;;7929175;28;20181;-50
2022/03/17 19:14:28;;;;;;;27.15;12.55;;;22.20;64.30;;;;;;7905145;28;20697;-48
2022/03/17 19:18:14;;;;;;;27.90;13.00;;;22.20;64.50;;;;;;7909390;28;20587;-50
2022/03/17 19:21:59;;;;;;;25.95;12.18;;;22.10;64.50;;;;;;7928601;28;20200;-51
2022/03/17 19:25:45;;;;;;;33.33;12.18;;;22.10;64.40;;;;;;7909149;28;20649;-48
2022/03/17 19:29:30;;;;;;;31.48;12.25;;;22.10;64.70;;;;;;7903853;28;20172;-49
2022/03/17 19:33:16;;;;;;;26.70;12.30;;;22.10;64.70;;;;;;7905392;28;20204;-47
2022/03/17 19:37:01;;;;;;;22.00;11.75;;;22.10;64.70;;;;;;7935314;28;20786;-47
2022/03/17 19:44:57;;;;;;;24.30;12.70;;;22.10;64.80;;;;;;7935234;28;20191;-49
2022/03/17 19:48:45;;;;;;;19.98;11.63;;;22.20;64.90;;;;;;7935274;28;20184;-50
2022/03/17 19:52:31;;;;;;;20.75;11.80;;;22.20;64.90;;;;;;7934780;28;20196;-48
2022/03/17 19:56:16;;;;;;;19.58;11.32;;;22.20;65.00;;;;;;7934840;28;20268;-48
2022/03/17 20:00:05;;;;;;;23.92;11.45;;;22.20;65.00;;;;;;7934670;28;20180;-47
2022/03/17 20:03:52;;;;;;;25.30;12.68;;;22.20;65.00;;;;;;7932408;28;20581;-47